createdAt,value
2022-12-23T00:01:53.774Z,33.38
2022-12-23T00:04:20.633Z,37.75
2022-12-23T00:06:47.488Z,35.55
2022-12-23T00:09:14.331Z,35.92
2022-12-23T00:12:00.993Z,34.95
2022-12-23T00:14:46.438Z,35.67
2022-12-23T00:17:23.746Z,37.85
2022-12-23T00:19:50.570Z,38.60
2022-12-23T00:22:17.222Z,40.17
2022-12-23T00:24:44.023Z,38.47
2022-12-23T00:27:11.026Z,39.90
2022-12-23T00:29:37.740Z,39.47
2022-12-23T00:32:04.789Z,40.35
2022-12-23T00:34:31.572Z,39.05
2022-12-23T00:36:58.228Z,38.15
2022-12-23T00:39:43.322Z,40.33
2022-12-23T00:42:28.752Z,40.00
2022-12-23T00:45:16.051Z,40.92
2022-12-23T00:48:05.913Z,40.20
2022-12-23T00:50:35.652Z,39.70
2022-12-23T00:53:02.627Z,40.70
2022-12-23T00:55:30.242Z,41.47
2022-12-23T00:57:57.126Z,41.35
2022-12-23T01:00:44.511Z,39.55
2022-12-23T01:03:31.972Z,41.38
2022-12-23T01:06:00.135Z,38.90
2022-12-23T01:08:27.586Z,40.25
2022-12-23T01:10:54.698Z,41.30
2022-12-23T01:13:22.002Z,40.97
2022-12-23T01:15:48.775Z,41.20
2022-12-23T01:18:15.537Z,40.83
2022-12-23T01:20:42.302Z,39.95
2022-12-23T01:23:09.086Z,40.10
2022-12-23T01:25:35.788Z,40.60
2022-12-23T01:28:02.664Z,40.33
2022-12-23T01:30:29.382Z,41.72
2022-12-23T01:32:56.289Z,38.90
2022-12-23T01:35:23.057Z,41.30
2022-12-23T01:37:49.752Z,40.78
2022-12-23T01:40:16.657Z,42.30
2022-12-23T01:42:43.472Z,40.08
2022-12-23T01:45:18.219Z,40.72
2022-12-23T01:48:09.980Z,41.97
2022-12-23T01:50:53.700Z,41.60
2022-12-23T01:53:31.449Z,39.50
2022-12-23T01:56:20.314Z,38.95
2022-12-23T01:58:51.641Z,40.00
2022-12-23T02:01:37.359Z,41.47
2022-12-23T02:04:13.845Z,39.30
2022-12-23T02:07:00.265Z,39.83
2022-12-23T02:09:32.878Z,37.78
2022-12-23T02:12:05.772Z,39.10
2022-12-23T02:15:08.003Z,40.00
2022-12-23T02:17:52.675Z,39.65
2022-12-23T02:20:46.906Z,39.88
2022-12-23T02:23:51.617Z,39.90
2022-12-23T02:26:40.238Z,39.42
2022-12-23T02:29:25.119Z,36.97
2022-12-23T02:32:21.336Z,40.10
2022-12-23T02:34:53.766Z,38.17
2022-12-23T02:37:24.573Z,40.40
2022-12-23T02:40:15.784Z,39.08
2022-12-23T02:42:50.710Z,40.17
2022-12-23T02:45:22.298Z,39.80
2022-12-23T02:47:57.762Z,40.60
2022-12-23T02:50:29.819Z,39.28
2022-12-23T02:53:01.509Z,40.83
2022-12-23T02:55:35.211Z,40.13
2022-12-23T02:58:08.244Z,41.60
2022-12-23T03:00:37.298Z,38.67
2022-12-23T03:03:04.211Z,40.47
2022-12-23T03:05:39.700Z,39.88
2022-12-23T03:08:11.082Z,41.10
2022-12-23T03:11:07.543Z,41.58
2022-12-23T03:16:24.380Z,39.50
2022-12-23T03:19:26.775Z,41.92
2022-12-23T03:22:09.244Z,40.92
2022-12-23T03:25:03.758Z,41.00
2022-12-23T03:27:41.096Z,40.78
2022-12-23T03:30:12.963Z,43.13
2022-12-23T03:32:47.290Z,40.25
2022-12-23T03:35:19.449Z,42.47
2022-12-23T03:37:49.561Z,40.75
2022-12-23T03:40:28.079Z,42.15
2022-12-23T03:43:11.809Z,39.60
2022-12-23T03:45:47.617Z,41.20
2022-12-23T03:48:55.619Z,40.50
2022-12-23T03:51:33.209Z,42.20
2022-12-23T03:54:05.334Z,41.83
2022-12-23T03:56:36.278Z,42.70
2022-12-23T03:59:13.311Z,43.85
2022-12-23T04:01:53.639Z,41.75
2022-12-23T04:04:42.267Z,41.95
2022-12-23T04:07:22.537Z,43.15
2022-12-23T04:09:54.285Z,41.28
2022-12-23T04:12:24.437Z,41.20
2022-12-23T04:14:51.675Z,40.28
2022-12-23T04:17:19.212Z,42.13
2022-12-23T04:19:47.083Z,41.17
2022-12-23T04:22:15.397Z,41.58
2022-12-23T04:24:43.041Z,42.67
2022-12-23T04:27:13.695Z,42.55
2022-12-23T04:29:40.526Z,42.08
2022-12-23T04:32:08.062Z,43.45
2022-12-23T04:34:35.549Z,43.75
2022-12-23T04:37:02.601Z,41.92
2022-12-23T04:39:29.416Z,40.28
2022-12-23T04:41:56.141Z,43.75
2022-12-23T04:44:22.937Z,41.25
2022-12-23T04:46:49.777Z,44.42
2022-12-23T04:49:16.456Z,43.50
2022-12-23T04:51:43.205Z,43.25
2022-12-23T04:54:10.101Z,43.40
2022-12-23T04:56:36.813Z,41.15
2022-12-23T04:59:04.419Z,44.50
2022-12-23T05:01:31.633Z,42.47
2022-12-23T05:03:58.425Z,42.47
2022-12-23T05:06:25.184Z,43.83
2022-12-23T05:08:51.988Z,42.95
2022-12-23T05:11:18.812Z,41.20
2022-12-23T05:13:45.648Z,42.47
2022-12-23T05:16:12.691Z,42.65
2022-12-23T05:18:39.476Z,43.95
2022-12-23T05:21:06.189Z,44.38
2022-12-23T05:23:32.991Z,42.88
2022-12-23T05:25:59.887Z,42.00
2022-12-23T05:28:26.564Z,40.97
2022-12-23T05:31:01.249Z,42.03
2022-12-23T05:33:28.383Z,42.77
2022-12-23T05:35:55.519Z,42.30
2022-12-23T05:38:22.513Z,43.10
2022-12-23T05:40:49.815Z,42.88
2022-12-23T05:43:16.534Z,42.42
2022-12-23T05:45:43.888Z,44.10
2022-12-23T05:48:10.823Z,41.42
2022-12-23T05:50:38.543Z,42.10
2022-12-23T05:53:06.607Z,41.50
2022-12-23T05:55:33.626Z,41.35
2022-12-23T05:58:00.336Z,42.08
2022-12-23T06:00:27.352Z,43.63
2022-12-23T06:02:54.593Z,43.92
2022-12-23T06:05:21.805Z,41.45
2022-12-23T06:07:48.674Z,44.95
2022-12-23T06:10:15.338Z,43.47
2022-12-23T06:12:42.140Z,45.05
2022-12-23T06:15:09.761Z,44.72
2022-12-23T06:17:36.712Z,44.13
2022-12-23T06:20:04.178Z,43.25
2022-12-23T06:22:31.508Z,43.97
2022-12-23T06:24:58.200Z,44.08
2022-12-23T06:27:25.027Z,43.28
2022-12-23T06:29:51.884Z,43.90
2022-12-23T06:32:18.770Z,43.92
2022-12-23T06:34:46.676Z,43.47
2022-12-23T06:37:13.492Z,45.70
2022-12-23T06:39:40.174Z,43.53
2022-12-23T06:42:06.868Z,41.90
2022-12-23T06:44:33.632Z,42.90
2022-12-23T06:47:00.312Z,43.65
2022-12-23T06:49:27.083Z,44.63
2022-12-23T06:51:53.865Z,42.33
2022-12-23T06:54:20.602Z,43.13
2022-12-23T06:56:47.493Z,42.25
2022-12-23T06:59:14.358Z,45.40
2022-12-23T07:01:41.189Z,45.00
2022-12-23T07:04:07.986Z,43.97
2022-12-23T07:06:34.863Z,44.60
2022-12-23T07:09:01.704Z,43.90
2022-12-23T07:11:28.469Z,43.33
2022-12-23T07:13:55.262Z,43.33
2022-12-23T07:16:21.979Z,44.15
2022-12-23T07:18:48.782Z,45.15
2022-12-23T07:21:24.640Z,44.88
2022-12-23T07:23:55.286Z,44.08
2022-12-23T07:26:22.038Z,44.33
2022-12-23T07:28:49.043Z,45.05
2022-12-23T07:31:16.314Z,46.38
2022-12-23T07:33:43.341Z,44.78
2022-12-23T07:36:10.358Z,46.35
2022-12-23T07:38:37.085Z,46.50
2022-12-23T07:41:04.167Z,45.63
2022-12-23T07:43:31.016Z,45.95
2022-12-23T07:46:00.853Z,44.33
2022-12-23T07:48:28.065Z,44.40
2022-12-23T07:51:00.834Z,45.60
2022-12-23T07:53:27.813Z,46.70
2022-12-23T07:55:56.700Z,45.22
2022-12-23T07:58:23.819Z,47.28
2022-12-23T08:00:50.642Z,47.58
2022-12-23T08:03:17.967Z,47.08
2022-12-23T08:05:44.796Z,46.65
2022-12-23T08:08:11.806Z,47.55
2022-12-23T08:10:44.494Z,44.67
2022-12-23T08:13:14.820Z,46.40
2022-12-23T08:15:41.640Z,47.58
2022-12-23T08:18:08.320Z,47.00
2022-12-23T08:20:35.120Z,44.35
2022-12-23T08:23:02.150Z,47.22
2022-12-23T08:25:28.798Z,47.13
2022-12-23T08:27:55.465Z,46.70
2022-12-23T08:30:22.515Z,46.95
2022-12-23T08:32:49.195Z,46.97
2022-12-23T08:35:15.976Z,47.50
2022-12-23T08:37:42.845Z,46.75
2022-12-23T08:40:09.935Z,46.17
2022-12-23T08:42:36.636Z,48.75
2022-12-23T08:45:03.609Z,48.47
2022-12-23T08:47:30.403Z,49.20
2022-12-23T08:49:57.127Z,51.20
2022-12-23T08:52:24.146Z,50.13
2022-12-23T08:54:50.818Z,50.40
2022-12-23T08:57:17.647Z,51.40
2022-12-23T08:59:44.464Z,50.50
2022-12-23T09:02:12.022Z,50.50
2022-12-23T09:04:39.027Z,49.13
2022-12-23T09:07:06.161Z,50.53
2022-12-23T09:09:32.915Z,49.15
2022-12-23T09:11:59.675Z,48.63
2022-12-23T09:14:26.682Z,49.00
2022-12-23T09:16:53.452Z,48.92
2022-12-23T09:19:20.399Z,49.53
2022-12-23T09:21:47.866Z,46.83
2022-12-23T09:24:14.565Z,50.78
2022-12-23T09:26:41.379Z,49.65
2022-12-23T09:29:08.423Z,48.35
2022-12-23T09:31:37.790Z,48.42
2022-12-23T09:34:06.162Z,49.42
2022-12-23T09:36:33.385Z,48.90
2022-12-23T09:39:00.148Z,49.10
2022-12-23T09:41:49.355Z,50.85
2022-12-23T09:44:32.563Z,49.13
2022-12-23T09:47:03.704Z,50.28
2022-12-23T09:49:30.756Z,48.83
2022-12-23T09:52:02.722Z,47.72
2022-12-23T09:54:34.944Z,48.70
2022-12-23T09:57:26.110Z,46.53
2022-12-23T10:00:08.290Z,46.25
2022-12-23T10:02:58.385Z,48.47
2022-12-23T10:05:50.108Z,48.00
2022-12-23T10:08:29.227Z,47.15
2022-12-23T10:11:20.741Z,46.47
2022-12-23T10:14:01.872Z,47.55
2022-12-23T10:16:38.701Z,44.63
2022-12-23T10:19:32.122Z,44.58
2022-12-23T10:22:15.966Z,42.78
2022-12-23T10:24:45.905Z,44.38
2022-12-23T10:27:23.425Z,43.38
2022-12-23T10:29:50.529Z,44.95
2022-12-23T10:32:17.309Z,44.97
2022-12-23T10:35:11.170Z,46.25
2022-12-23T10:38:02.042Z,44.67
2022-12-23T10:40:34.595Z,45.47
2022-12-23T10:43:39.297Z,45.55
2022-12-23T10:46:36.682Z,44.85
2022-12-23T10:49:32.409Z,44.35
2022-12-23T10:52:22.912Z,43.15
2022-12-23T10:54:49.855Z,43.58
2022-12-23T10:57:18.561Z,45.45
2022-12-23T10:59:45.657Z,45.90
2022-12-23T11:02:12.475Z,47.47
2022-12-23T11:04:45.227Z,45.90
2022-12-23T11:07:43.393Z,47.80
2022-12-23T11:10:13.085Z,45.53
2022-12-23T11:12:43.113Z,45.63
2022-12-23T11:15:26.361Z,47.38
2022-12-23T11:18:11.234Z,47.28
2022-12-23T11:20:40.174Z,45.30
2022-12-23T11:23:27.185Z,46.10
2022-12-23T11:26:09.373Z,45.60
2022-12-23T11:28:39.595Z,45.55
2022-12-23T11:31:11.965Z,44.97
2022-12-23T11:33:45.540Z,44.53
2022-12-23T11:36:25.908Z,44.03
2022-12-23T11:39:07.624Z,45.22
2022-12-23T11:41:38.955Z,44.10
2022-12-23T11:44:10.313Z,41.53
2022-12-23T11:46:37.142Z,38.75
2022-12-23T11:49:28.437Z,36.28
2022-12-23T11:52:11.863Z,35.78
2022-12-23T11:54:39.560Z,33.10
2022-12-23T11:57:15.496Z,32.33
2022-12-23T11:59:45.001Z,30.30
2022-12-23T12:02:27.585Z,31.75
2022-12-23T12:05:08.821Z,30.05
2022-12-23T12:07:35.981Z,31.30
2022-12-23T12:10:04.000Z,30.08
2022-12-23T12:12:30.999Z,32.85
2022-12-23T12:14:59.864Z,33.53
2022-12-23T12:17:47.613Z,34.13
2022-12-23T12:20:24.201Z,30.95
2022-12-23T12:23:11.796Z,33.50
2022-12-23T12:25:44.200Z,33.60
2022-12-23T12:28:19.839Z,34.30
2022-12-23T12:30:56.339Z,36.45
2022-12-23T12:33:38.565Z,36.63
2022-12-23T12:36:05.783Z,33.70
2022-12-23T12:38:36.069Z,33.97
2022-12-23T12:41:07.367Z,35.08
2022-12-23T12:43:39.523Z,36.15
2022-12-23T12:46:31.001Z,37.13
2022-12-23T12:49:21.012Z,37.92
2022-12-23T12:51:57.035Z,40.55
2022-12-23T12:54:37.196Z,41.58
2022-12-23T12:57:04.142Z,41.50
2022-12-23T12:59:36.777Z,42.47
2022-12-23T13:02:41.589Z,42.95
2022-12-23T13:05:36.078Z,40.10
2022-12-23T13:08:33.876Z,42.00
2022-12-23T13:11:10.810Z,41.10
2022-12-23T13:14:18.505Z,43.55
2022-12-23T13:16:53.711Z,42.05
2022-12-23T13:20:09.080Z,43.30
2022-12-23T13:22:37.235Z,42.15
2022-12-23T13:25:29.148Z,43.70
2022-12-23T13:28:26.704Z,43.90
2022-12-23T13:31:19.391Z,42.90
2022-12-23T13:33:58.107Z,42.08
2022-12-23T13:36:44.623Z,40.40
2022-12-23T13:39:42.132Z,44.70
2022-12-23T13:42:16.533Z,45.80
2022-12-23T13:44:43.699Z,44.42
2022-12-23T13:47:30.144Z,44.42
2022-12-23T13:50:02.162Z,46.22
2022-12-23T13:53:06.212Z,48.03
2022-12-23T13:56:13.995Z,45.83
2022-12-23T13:58:41.272Z,44.15
2022-12-23T14:01:08.090Z,46.97
2022-12-23T14:03:37.757Z,48.15
2022-12-23T14:06:24.433Z,48.05
2022-12-23T14:08:52.608Z,48.63
2022-12-23T14:11:29.813Z,47.70
2022-12-23T14:14:07.360Z,45.83
2022-12-23T14:16:58.799Z,47.30
2022-12-23T14:19:47.385Z,48.30
2022-12-23T14:22:31.679Z,48.15
2022-12-23T14:25:15.370Z,50.65
2022-12-23T14:27:51.256Z,49.92
2022-12-23T14:30:45.538Z,47.80
2022-12-23T14:33:15.351Z,47.83
2022-12-23T14:35:42.879Z,46.33
2022-12-23T14:38:15.631Z,45.83
2022-12-23T14:40:42.619Z,47.80
2022-12-23T14:43:27.685Z,49.78
2022-12-23T14:46:06.180Z,47.70
2022-12-23T14:48:36.053Z,47.20
2022-12-23T14:51:40.695Z,48.10
2022-12-23T14:54:15.325Z,47.08
2022-12-23T14:57:00.539Z,49.33
2022-12-23T14:59:58.512Z,50.87
2022-12-23T15:02:35.356Z,51.67
2022-12-23T15:05:02.583Z,50.05
2022-12-23T15:07:33.624Z,51.08
2022-12-23T15:10:06.501Z,50.63
2022-12-23T15:12:35.104Z,47.85
2022-12-23T15:15:29.858Z,50.55
2022-12-23T15:18:10.949Z,47.90
2022-12-23T15:20:38.302Z,48.53
2022-12-23T15:23:16.281Z,49.53
2022-12-23T15:25:46.536Z,48.35
2022-12-23T15:28:41.312Z,45.75
2022-12-23T15:31:25.952Z,46.60
2022-12-23T15:34:03.446Z,46.55
2022-12-23T15:36:36.870Z,45.80
2022-12-23T15:39:09.938Z,44.05
2022-12-23T15:41:44.126Z,45.95
2022-12-23T15:44:15.627Z,44.67
2022-12-23T15:46:42.754Z,42.15
2022-12-23T15:49:11.781Z,42.88
2022-12-23T15:54:35.446Z,43.22
2022-12-23T15:57:04.436Z,44.25
2022-12-23T15:59:38.605Z,43.63
2022-12-23T16:05:42.090Z,48.05
2022-12-23T16:08:21.597Z,46.53
2022-12-23T16:11:15.343Z,47.63
2022-12-23T16:13:58.345Z,46.28
2022-12-23T16:16:34.092Z,47.53
2022-12-23T16:19:00.840Z,46.45
2022-12-23T16:21:34.833Z,47.42
2022-12-23T16:24:07.059Z,45.65
2022-12-23T16:26:42.501Z,45.90
2022-12-23T16:29:11.479Z,43.40
2022-12-23T16:31:42.812Z,40.92
2022-12-23T16:34:13.389Z,42.08
2022-12-23T16:36:40.368Z,40.75
2022-12-23T16:39:07.088Z,40.83
2022-12-23T16:41:35.079Z,39.88
2022-12-23T16:44:02.341Z,38.90
2022-12-23T16:46:34.163Z,38.40
2022-12-23T16:49:04.784Z,37.85
2022-12-23T16:51:34.173Z,38.33
2022-12-23T16:54:03.469Z,38.63
2022-12-23T16:56:36.426Z,36.30
2022-12-23T16:59:04.401Z,37.13
2022-12-23T17:01:41.996Z,38.60
2022-12-23T17:04:09.344Z,37.47
2022-12-23T17:06:36.750Z,36.75
2022-12-23T17:09:05.164Z,36.63
2022-12-23T17:11:39.592Z,35.65
2022-12-23T17:14:13.522Z,36.35
2022-12-23T17:16:42.522Z,37.40
2022-12-23T17:19:09.508Z,37.13
2022-12-23T17:21:37.767Z,36.50
2022-12-23T17:24:09.446Z,35.92
2022-12-23T17:26:36.213Z,36.33
2022-12-23T17:29:04.967Z,35.80
2022-12-23T17:31:34.588Z,36.90
2022-12-23T17:34:02.187Z,38.00
2022-12-23T17:36:29.549Z,37.33
2022-12-23T17:38:56.390Z,37.13
2022-12-23T17:41:26.594Z,39.60
2022-12-23T17:43:53.302Z,36.15
2022-12-23T17:46:20.418Z,34.97
2022-12-23T17:48:47.824Z,34.47
2022-12-23T17:51:17.225Z,36.58
2022-12-23T17:53:45.265Z,36.20
2022-12-23T17:56:13.930Z,37.45
2022-12-23T17:58:41.713Z,36.53
2022-12-23T18:01:21.888Z,36.00
2022-12-23T18:03:48.680Z,34.90
2022-12-23T18:06:18.063Z,37.28
2022-12-23T18:08:45.959Z,34.03
2022-12-23T18:11:21.231Z,34.92
2022-12-23T18:13:50.050Z,35.67
2022-12-23T18:16:16.776Z,35.33
2022-12-23T18:18:46.662Z,35.90
2022-12-23T18:21:26.235Z,34.90
2022-12-23T18:23:56.665Z,34.53
2022-12-23T18:26:24.798Z,35.35
2022-12-23T18:28:54.328Z,33.45
2022-12-23T18:31:25.712Z,34.78
2022-12-23T18:33:53.053Z,35.33
2022-12-23T18:36:25.978Z,33.70
2022-12-23T18:38:53.836Z,33.75
2022-12-23T18:41:21.455Z,34.75
2022-12-23T18:43:48.437Z,34.00
2022-12-23T18:46:15.256Z,33.63
2022-12-23T18:48:42.240Z,33.97
2022-12-23T18:51:17.469Z,34.28
2022-12-23T18:53:45.421Z,35.55
2022-12-23T18:56:24.025Z,35.58
2022-12-23T18:58:50.730Z,33.80
2022-12-23T19:01:18.867Z,34.90
2022-12-23T19:03:46.549Z,34.67
2022-12-23T19:06:14.587Z,35.75
2022-12-23T19:08:42.594Z,34.60
2022-12-23T19:11:15.579Z,34.35
2022-12-23T19:13:42.467Z,34.50
2022-12-23T19:16:16.821Z,33.95
2022-12-23T19:18:44.318Z,34.38
2022-12-23T19:21:11.119Z,34.78
2022-12-23T19:23:39.454Z,35.35
2022-12-23T19:26:06.252Z,34.85
2022-12-23T19:28:33.547Z,36.88
2022-12-23T19:31:00.442Z,37.35
2022-12-23T19:33:27.343Z,36.97
2022-12-23T19:35:54.144Z,36.75
2022-12-23T19:38:21.124Z,35.72
2022-12-23T19:40:56.546Z,36.20
2022-12-23T19:43:23.421Z,37.05
2022-12-23T19:46:01.696Z,37.47
2022-12-23T19:48:29.479Z,38.50
2022-12-23T19:51:01.602Z,36.85
2022-12-23T19:53:29.313Z,36.40
2022-12-23T19:56:07.470Z,38.13
2022-12-23T19:58:40.052Z,36.58
2022-12-23T20:01:21.722Z,36.72
2022-12-23T20:03:49.676Z,36.97
2022-12-23T20:06:30.616Z,39.13
2022-12-23T20:09:00.884Z,37.35
2022-12-23T20:11:30.626Z,37.67
2022-12-23T20:13:58.522Z,38.20
2022-12-23T20:16:26.428Z,40.00
2022-12-23T20:18:53.540Z,40.55
2022-12-23T20:21:20.666Z,39.75
2022-12-23T20:23:47.796Z,38.90
2022-12-23T20:26:16.099Z,40.65
2022-12-23T20:28:42.881Z,39.53
2022-12-23T20:31:23.974Z,39.40
2022-12-23T20:33:52.726Z,40.80
2022-12-23T20:36:21.662Z,39.92
2022-12-23T20:38:49.037Z,39.28
2022-12-23T20:41:21.909Z,41.10
2022-12-23T20:44:02.728Z,40.30
2022-12-23T20:46:35.711Z,41.20
2022-12-23T20:49:02.521Z,39.72
2022-12-23T20:51:29.323Z,40.22
2022-12-23T20:54:00.139Z,41.75
2022-12-23T20:56:29.167Z,40.17
2022-12-23T20:58:59.065Z,39.35
2022-12-23T21:01:32.236Z,40.13
2022-12-23T21:04:00.994Z,40.67
2022-12-23T21:06:29.053Z,42.03
2022-12-23T21:08:58.229Z,40.78
2022-12-23T21:11:26.877Z,40.05
2022-12-23T21:13:53.909Z,42.00
2022-12-23T21:16:21.243Z,39.10
2022-12-23T21:18:52.589Z,39.40
2022-12-23T21:21:26.307Z,40.60
2022-12-23T21:23:57.589Z,39.70
2022-12-23T21:26:27.556Z,38.13
2022-12-23T21:28:56.008Z,40.45
2022-12-23T21:31:23.926Z,41.05
2022-12-23T21:33:51.955Z,40.55
2022-12-23T21:36:21.368Z,39.17
2022-12-23T21:38:49.261Z,40.78
2022-12-23T21:41:22.140Z,41.30
2022-12-23T21:43:49.502Z,39.97
2022-12-23T21:46:20.085Z,40.80
2022-12-23T21:48:47.377Z,42.03
2022-12-23T21:51:15.856Z,43.05
2022-12-23T21:53:44.253Z,42.72
2022-12-23T21:56:13.892Z,42.17
2022-12-23T21:58:40.886Z,40.78
2022-12-23T22:01:19.532Z,39.28
2022-12-23T22:03:48.786Z,40.65
2022-12-23T22:06:22.213Z,41.25
2022-12-23T22:08:50.101Z,41.35
2022-12-23T22:11:25.520Z,41.08
2022-12-23T22:13:52.983Z,42.10
2022-12-23T22:16:22.112Z,41.13
2022-12-23T22:18:50.086Z,42.20
2022-12-23T22:21:19.848Z,43.47
2022-12-23T22:23:47.317Z,42.10
2022-12-23T22:26:23.903Z,41.67
2022-12-23T22:28:51.680Z,41.25
2022-12-23T22:31:20.027Z,42.42
2022-12-23T22:33:47.101Z,42.03
2022-12-23T22:36:15.841Z,41.13
2022-12-23T22:38:43.480Z,41.03
2022-12-23T22:41:10.862Z,40.15
2022-12-23T22:43:37.898Z,41.78
2022-12-23T22:46:05.364Z,42.60
2022-12-23T22:48:32.400Z,42.40
2022-12-23T22:51:09.674Z,42.50
2022-12-23T22:53:37.212Z,42.03
2022-12-23T22:56:05.305Z,42.70
2022-12-23T22:58:33.685Z,43.88
2022-12-23T23:01:00.881Z,43.63
2022-12-23T23:03:28.462Z,44.05
2022-12-23T23:06:07.718Z,44.50
2022-12-23T23:08:34.801Z,44.42
2022-12-23T23:11:03.597Z,43.83
2022-12-23T23:13:33.312Z,44.78
2022-12-23T23:16:01.496Z,46.33
2022-12-23T23:18:29.689Z,48.20
2022-12-23T23:20:56.841Z,47.40
2022-12-23T23:23:23.707Z,46.67
2022-12-23T23:25:50.451Z,48.08
2022-12-23T23:28:17.473Z,44.78
2022-12-23T23:30:44.416Z,48.55
2022-12-23T23:33:11.978Z,47.92
2022-12-23T23:35:39.393Z,47.75
2022-12-23T23:38:06.160Z,47.22
2022-12-23T23:40:32.988Z,45.40
2022-12-23T23:43:00.549Z,47.22
2022-12-23T23:45:27.527Z,45.20
2022-12-23T23:47:55.319Z,47.05
2022-12-23T23:50:22.603Z,44.38
2022-12-23T23:52:49.341Z,45.55
2022-12-23T23:55:16.102Z,45.30
2022-12-23T23:57:42.854Z,44.25
